sensor_id;sensor_type;location;lat;lon;timestamp;temperature;humidity
42145;DHT22;27813;43.516;11.890;2022-09-03T03:26:08;15.90;83.40
42145;DHT22;27813;43.516;11.890;2022-09-03T03:30:13;15.80;83.40
42145;DHT22;27813;43.516;11.890;2022-09-03T03:34:17;15.70;83.60
42145;DHT22;27813;43.516;11.890;2022-09-03T03:38:22;15.70;83.70
42145;DHT22;27813;43.516;11.890;2022-09-03T03:42:26;15.60;83.80
42145;DHT22;27813;43.516;11.890;2022-09-03T03:46:35;15.50;84.00
42145;DHT22;27813;43.516;11.890;2022-09-03T03:50:40;15.50;84.20
42145;DHT22;27813;43.516;11.890;2022-09-03T03:54:44;15.50;84.30
42145;DHT22;27813;43.516;11.890;2022-09-03T03:58:49;15.50;84.30
42145;DHT22;27813;43.516;11.890;2022-09-03T04:02:54;15.50;84.30
42145;DHT22;27813;43.516;11.890;2022-09-03T04:06:58;15.50;84.40
42145;DHT22;27813;43.516;11.890;2022-09-03T04:11:05;15.50;84.40
42145;DHT22;27813;43.516;11.890;2022-09-03T04:15:10;15.60;84.40
42145;DHT22;27813;43.516;11.890;2022-09-03T04:19:14;15.60;84.30
42145;DHT22;27813;43.516;11.890;2022-09-03T04:23:18;15.70;84.30
42145;DHT22;27813;43.516;11.890;2022-09-03T04:27:22;15.70;84.30
42145;DHT22;27813;43.516;11.890;2022-09-03T04:31:28;15.70;84.10
42145;DHT22;27813;43.516;11.890;2022-09-03T04:35:34;15.80;84.10
42145;DHT22;27813;43.516;11.890;2022-09-03T04:39:39;15.90;84.00
42145;DHT22;27813;43.516;11.890;2022-09-03T04:43:44;15.90;83.90
42145;DHT22;27813;43.516;11.890;2022-09-03T04:48:00;16.00;83.90
42145;DHT22;27813;43.516;11.890;2022-09-03T04:52:05;16.10;83.80
42145;DHT22;27813;43.516;11.890;2022-09-03T04:56:14;16.20;83.80
42145;DHT22;27813;43.516;11.890;2022-09-03T05:00:20;16.30;83.70
42145;DHT22;27813;43.516;11.890;2022-09-03T05:04:26;16.30;83.70
42145;DHT22;27813;43.516;11.890;2022-09-03T05:08:31;16.40;83.60
42145;DHT22;27813;43.516;11.890;2022-09-03T05:12:35;16.50;83.60
42145;DHT22;27813;43.516;11.890;2022-09-03T05:16:40;16.60;83.50
42145;DHT22;27813;43.516;11.890;2022-09-03T05:20:46;16.60;83.40
42145;DHT22;27813;43.516;11.890;2022-09-03T05:24:51;16.80;83.30
42145;DHT22;27813;43.516;11.890;2022-09-03T05:28:58;16.90;83.20
42145;DHT22;27813;43.516;11.890;2022-09-03T05:33:04;17.10;82.90
42145;DHT22;27813;43.516;11.890;2022-09-03T05:37:10;17.30;82.70
42145;DHT22;27813;43.516;11.890;2022-09-03T05:41:17;17.80;82.00
42145;DHT22;27813;43.516;11.890;2022-09-03T05:45:21;18.40;80.90
42145;DHT22;27813;43.516;11.890;2022-09-03T05:49:26;18.70;79.90
42145;DHT22;27813;43.516;11.890;2022-09-03T05:53:34;18.80;79.70
42145;DHT22;27813;43.516;11.890;2022-09-03T05:57:40;18.80;79.80
42145;DHT22;27813;43.516;11.890;2022-09-03T06:01:45;18.80;80.00
42145;DHT22;27813;43.516;11.890;2022-09-03T06:05:55;18.90;80.10
42145;DHT22;27813;43.516;11.890;2022-09-03T06:09:59;19.00;80.20
42145;DHT22;27813;43.516;11.890;2022-09-03T06:14:08;19.30;79.90
42145;DHT22;27813;43.516;11.890;2022-09-03T06:18:13;19.60;79.60
42145;DHT22;27813;43.516;11.890;2022-09-03T06:22:21;20.40;79.20
42145;DHT22;27813;43.516;11.890;2022-09-03T06:26:29;22.00;74.80
42145;DHT22;27813;43.516;11.890;2022-09-03T06:30:34;23.50;71.00
42145;DHT22;27813;43.516;11.890;2022-09-03T06:34:39;24.00;69.40
42145;DHT22;27813;43.516;11.890;2022-09-03T06:38:44;24.00;69.00
42145;DHT22;27813;43.516;11.890;2022-09-03T06:42:57;23.60;69.50
42145;DHT22;27813;43.516;11.890;2022-09-03T06:47:06;22.90;71.20
42145;DHT22;27813;43.516;11.890;2022-09-03T06:51:15;22.30;72.70
42145;DHT22;27813;43.516;11.890;2022-09-03T06:55:22;21.80;73.90
42145;DHT22;27813;43.516;11.890;2022-09-03T06:59:26;21.50;75.00
42145;DHT22;27813;43.516;11.890;2022-09-03T07:03:31;21.20;75.70
42145;DHT22;27813;43.516;11.890;2022-09-03T07:07:36;21.10;76.00
42145;DHT22;27813;43.516;11.890;2022-09-03T07:11:41;21.00;76.10
42145;DHT22;27813;43.516;11.890;2022-09-03T07:16:08;21.20;76.10
42145;DHT22;27813;43.516;11.890;2022-09-03T07:20:13;21.40;75.90
42145;DHT22;27813;43.516;11.890;2022-09-03T07:24:19;21.40;75.50
42145;DHT22;27813;43.516;11.890;2022-09-03T07:28:27;21.40;75.50
42145;DHT22;27813;43.516;11.890;2022-09-03T07:32:33;21.20;75.60
42145;DHT22;27813;43.516;11.890;2022-09-03T07:36:43;21.10;75.70
42145;DHT22;27813;43.516;11.890;2022-09-03T07:40:59;21.00;75.90
42145;DHT22;27813;43.516;11.890;2022-09-03T07:45:07;20.90;76.20
42145;DHT22;27813;43.516;11.890;2022-09-03T07:49:15;20.80;76.40
42145;DHT22;27813;43.516;11.890;2022-09-03T07:53:20;20.80;76.50
42145;DHT22;27813;43.516;11.890;2022-09-03T07:57:24;20.70;76.60
42145;DHT22;27813;43.516;11.890;2022-09-03T08:01:30;20.70;76.70
42145;DHT22;27813;43.516;11.890;2022-09-03T08:05:36;20.60;76.80
42145;DHT22;27813;43.516;11.890;2022-09-03T08:09:40;20.60;76.90
42145;DHT22;27813;43.516;11.890;2022-09-03T08:13:47;20.50;76.90
42145;DHT22;27813;43.516;11.890;2022-09-03T08:17:52;20.50;77.00
42145;DHT22;27813;43.516;11.890;2022-09-03T08:22:06;20.50;77.20
42145;DHT22;27813;43.516;11.890;2022-09-03T08:26:11;20.50;77.20
42145;DHT22;27813;43.516;11.890;2022-09-03T08:30:16;20.60;77.10
42145;DHT22;27813;43.516;11.890;2022-09-03T08:34:20;20.60;77.00
42145;DHT22;27813;43.516;11.890;2022-09-03T08:38:25;20.70;76.90
42145;DHT22;27813;43.516;11.890;2022-09-03T08:42:45;20.80;76.90
42145;DHT22;27813;43.516;11.890;2022-09-03T08:46:57;20.70;76.90
42145;DHT22;27813;43.516;11.890;2022-09-03T08:51:05;20.60;77.10
42145;DHT22;27813;43.516;11.890;2022-09-03T08:55:26;20.60;77.40
42145;DHT22;27813;43.516;11.890;2022-09-03T08:59:31;20.60;77.60
42145;DHT22;27813;43.516;11.890;2022-09-03T09:21:39;19.90;80.30
42145;DHT22;27813;43.516;11.890;2022-09-03T09:25:50;19.80;80.80
42145;DHT22;27813;43.516;11.890;2022-09-03T09:30:05;19.90;81.30
42145;DHT22;27813;43.516;11.890;2022-09-03T09:34:11;20.00;81.40
42145;DHT22;27813;43.516;11.890;2022-09-03T09:38:31;20.40;81.00
42145;DHT22;27813;43.516;11.890;2022-09-03T09:42:36;20.50;80.60
42145;DHT22;27813;43.516;11.890;2022-09-03T09:46:41;20.70;80.60
42145;DHT22;27813;43.516;11.890;2022-09-03T09:50:46;20.80;81.00
42145;DHT22;27813;43.516;11.890;2022-09-03T09:54:52;21.00;81.00
42145;DHT22;27813;43.516;11.890;2022-09-03T09:59:06;21.00;81.00
42145;DHT22;27813;43.516;11.890;2022-09-03T10:03:13;21.10;80.70
42145;DHT22;27813;43.516;11.890;2022-09-03T10:07:29;21.20;80.70
42145;DHT22;27813;43.516;11.890;2022-09-03T10:11:37;21.30;80.80
42145;DHT22;27813;43.516;11.890;2022-09-03T10:15:57;21.40;80.80
42145;DHT22;27813;43.516;11.890;2022-09-03T10:20:21;21.50;81.00
42145;DHT22;27813;43.516;11.890;2022-09-03T10:24:55;21.70;81.20
42145;DHT22;27813;43.516;11.890;2022-09-03T10:29:06;21.90;81.20
42145;DHT22;27813;43.516;11.890;2022-09-03T10:33:21;22.00;80.80
42145;DHT22;27813;43.516;11.890;2022-09-03T10:37:46;22.10;80.80
42145;DHT22;27813;43.516;11.890;2022-09-03T11:03:25;22.00;81.80
42145;DHT22;27813;43.516;11.890;2022-09-03T11:07:37;22.00;81.80
42145;DHT22;27813;43.516;11.890;2022-09-03T11:11:54;22.00;81.70
42145;DHT22;27813;43.516;11.890;2022-09-03T11:16:30;22.00;81.50
42145;DHT22;27813;43.516;11.890;2022-09-03T11:22:19;21.90;81.70
42145;DHT22;27813;43.516;11.890;2022-09-03T11:32:54;21.60;81.60
42145;DHT22;27813;43.516;11.890;2022-09-03T11:38:48;21.30;81.90
42145;DHT22;27813;43.516;11.890;2022-09-03T11:43:26;21.00;82.50
42145;DHT22;27813;43.516;11.890;2022-09-03T11:48:37;20.80;82.90
42145;DHT22;27813;43.516;11.890;2022-09-03T11:59:44;20.40;83.80
42145;DHT22;27813;43.516;11.890;2022-09-03T12:05:03;20.20;84.20
42145;DHT22;27813;43.516;11.890;2022-09-03T12:21:27;20.50;84.80
42145;DHT22;27813;43.516;11.890;2022-09-03T12:26:50;20.50;85.30
42145;DHT22;27813;43.516;11.890;2022-09-03T12:31:23;20.50;86.30
42145;DHT22;27813;43.516;11.890;2022-09-03T12:37:03;20.80;86.80
42145;DHT22;27813;43.516;11.890;2022-09-03T12:42:33;21.40;86.00
42145;DHT22;27813;43.516;11.890;2022-09-03T12:47:46;22.10;85.00
42145;DHT22;27813;43.516;11.890;2022-09-03T12:58:12;23.40;83.50
42145;DHT22;27813;43.516;11.890;2022-09-03T13:03:11;23.80;82.30
42145;DHT22;27813;43.516;11.890;2022-09-03T13:07:34;24.00;82.00
42145;DHT22;27813;43.516;11.890;2022-09-03T13:11:47;24.20;81.50
42145;DHT22;27813;43.516;11.890;2022-09-03T13:16:37;24.60;81.00
42145;DHT22;27813;43.516;11.890;2022-09-03T13:25:50;25.00;79.10
42145;DHT22;27813;43.516;11.890;2022-09-03T13:32:31;24.60;79.10
42145;DHT22;27813;43.516;11.890;2022-09-03T13:37:48;24.00;79.60
42145;DHT22;27813;43.516;11.890;2022-09-03T13:49:05;23.50;80.50
42145;DHT22;27813;43.516;11.890;2022-09-03T13:54:49;23.80;80.30
42145;DHT22;27813;43.516;11.890;2022-09-03T13:59:39;24.40;78.90
42145;DHT22;27813;43.516;11.890;2022-09-03T14:05:07;24.80;77.90
42145;DHT22;27813;43.516;11.890;2022-09-03T14:09:58;25.20;76.70
42145;DHT22;27813;43.516;11.890;2022-09-03T14:19:54;25.70;75.40
42145;DHT22;27813;43.516;11.890;2022-09-03T14:29:29;26.50;73.30
42145;DHT22;27813;43.516;11.890;2022-09-03T14:39:58;26.90;71.90
42145;DHT22;27813;43.516;11.890;2022-09-03T14:45:19;27.00;71.80
42145;DHT22;27813;43.516;11.890;2022-09-03T15:00:20;26.60;71.50
42145;DHT22;27813;43.516;11.890;2022-09-03T15:25:05;26.00;70.90
42145;DHT22;27813;43.516;11.890;2022-09-03T15:29:37;25.80;71.00
42145;DHT22;27813;43.516;11.890;2022-09-03T15:42:26;25.20;71.80
42145;DHT22;27813;43.516;11.890;2022-09-03T15:46:48;25.00;72.10
42145;DHT22;27813;43.516;11.890;2022-09-03T15:55:23;24.50;72.60
42145;DHT22;27813;43.516;11.890;2022-09-03T16:00:05;24.30;72.90
42145;DHT22;27813;43.516;11.890;2022-09-03T16:08:45;24.00;73.30
42145;DHT22;27813;43.516;11.890;2022-09-03T16:13:26;23.90;73.40
42145;DHT22;27813;43.516;11.890;2022-09-03T16:17:53;23.80;73.60
42145;DHT22;27813;43.516;11.890;2022-09-03T16:22:28;23.60;73.90
42145;DHT22;27813;43.516;11.890;2022-09-03T16:27:16;23.60;74.10
42145;DHT22;27813;43.516;11.890;2022-09-03T16:32:17;23.80;73.80
42145;DHT22;27813;43.516;11.890;2022-09-03T16:58:19;24.70;71.60
42145;DHT22;27813;43.516;11.890;2022-09-03T17:26:21;23.80;73.20
42145;DHT22;27813;43.516;11.890;2022-09-03T17:30:26;23.70;73.60
42145;DHT22;27813;43.516;11.890;2022-09-03T17:48:21;22.90;75.00
42145;DHT22;27813;43.516;11.890;2022-09-03T17:57:31;22.50;75.90
42145;DHT22;27813;43.516;11.890;2022-09-03T18:02:11;22.20;76.30
42145;DHT22;27813;43.516;11.890;2022-09-03T18:06:33;22.00;76.80
42145;DHT22;27813;43.516;11.890;2022-09-03T18:11:10;21.60;77.40
42145;DHT22;27813;43.516;11.890;2022-09-03T18:15:23;21.30;77.90
42145;DHT22;27813;43.516;11.890;2022-09-03T18:19:49;21.00;78.50
42145;DHT22;27813;43.516;11.890;2022-09-03T18:24:31;20.80;79.10
42145;DHT22;27813;43.516;11.890;2022-09-03T18:29:04;20.60;79.60
42145;DHT22;27813;43.516;11.890;2022-09-03T18:33:28;20.40;79.90
42145;DHT22;27813;43.516;11.890;2022-09-03T18:37:53;20.20;80.40
42145;DHT22;27813;43.516;11.890;2022-09-03T18:47:22;19.90;81.20
42145;DHT22;27813;43.516;11.890;2022-09-03T18:56:53;19.40;82.00
42145;DHT22;27813;43.516;11.890;2022-09-03T19:01:54;19.20;82.50
42145;DHT22;27813;43.516;11.890;2022-09-03T19:20:33;18.70;83.60
42145;DHT22;27813;43.516;11.890;2022-09-03T19:25:10;18.50;83.90
42145;DHT22;27813;43.516;11.890;2022-09-03T19:30:06;18.40;84.00
42145;DHT22;27813;43.516;11.890;2022-09-03T19:53:57;18.00;85.10
42145;DHT22;27813;43.516;11.890;2022-09-03T19:58:29;17.80;85.30
42145;DHT22;27813;43.516;11.890;2022-09-03T20:02:55;17.70;85.60
42145;DHT22;27813;43.516;11.890;2022-09-03T20:07:22;17.50;85.80
42145;DHT22;27813;43.516;11.890;2022-09-03T20:11:46;17.50;86.00
42145;DHT22;27813;43.516;11.890;2022-09-03T20:25:24;17.60;86.00
42145;DHT22;27813;43.516;11.890;2022-09-03T20:29:57;18.00;85.80
42145;DHT22;27813;43.516;11.890;2022-09-03T20:38:41;18.40;85.20
42145;DHT22;27813;43.516;11.890;2022-09-03T20:51:21;18.30;85.10
42145;DHT22;27813;43.516;11.890;2022-09-03T20:55:41;18.10;85.40
42145;DHT22;27813;43.516;11.890;2022-09-03T21:00:08;17.90;85.80
42145;DHT22;27813;43.516;11.890;2022-09-03T21:13:22;17.50;86.50
42145;DHT22;27813;43.516;11.890;2022-09-03T21:17:47;17.50;86.70
42145;DHT22;27813;43.516;11.890;2022-09-03T21:26:31;17.20;87.00
42145;DHT22;27813;43.516;11.890;2022-09-03T21:30:39;17.10;87.10
42145;DHT22;27813;43.516;11.890;2022-09-03T21:35:00;17.00;87.30
42145;DHT22;27813;43.516;11.890;2022-09-03T21:39:14;16.90;87.50
42145;DHT22;27813;43.516;11.890;2022-09-03T21:43:38;16.70;87.70
42145;DHT22;27813;43.516;11.890;2022-09-03T21:47:52;16.70;87.80
42145;DHT22;27813;43.516;11.890;2022-09-03T21:52:10;16.60;87.80
42145;DHT22;27813;43.516;11.890;2022-09-03T22:00:26;16.70;87.90
42145;DHT22;27813;43.516;11.890;2022-09-03T22:04:36;16.70;87.70
42145;DHT22;27813;43.516;11.890;2022-09-03T22:18:18;16.80;87.60
42145;DHT22;27813;43.516;11.890;2022-09-03T22:22:03;16.70;87.60
42145;DHT22;27813;43.516;11.890;2022-09-03T22:26:44;16.70;87.70
42145;DHT22;27813;43.516;11.890;2022-09-03T22:39:49;16.70;88.00
42145;DHT22;27813;43.516;11.890;2022-09-03T22:44:10;16.80;88.10
42145;DHT22;27813;43.516;11.890;2022-09-03T22:57:26;16.70;88.10
42145;DHT22;27813;43.516;11.890;2022-09-03T23:01:59;16.70;88.10
42145;DHT22;27813;43.516;11.890;2022-09-03T23:06:12;16.60;88.10
42145;DHT22;27813;43.516;11.890;2022-09-03T23:10:25;16.50;88.30
42145;DHT22;27813;43.516;11.890;2022-09-03T23:14:38;16.40;88.50
42145;DHT22;27813;43.516;11.890;2022-09-03T23:18:55;16.40;88.60
42145;DHT22;27813;43.516;11.890;2022-09-03T23:27:22;16.30;88.80
